Coffeyville, Kansas
Current Conditions -  °F | °C
As of 4:52 PM on Monday 24 Nov 2014 (Local Time) from KCFV Reporting Station
Clear Clear  
Wind Chill:   Ceiling: Unl
Heat Index:   Visibility: 10mi
Dew Point: -4°   Wind: 10mph
Humidity: 39%   Direction: 300°WNW
Pressure: 29.96"   Gusts: NA
Location:  37.03°N, 95.62°W
Report Text: KCFV 242252Z AUTO 30009KT 10SM CLR 09/M04 A2996 RMK AO2 SLP150 T00891044
Loading
Personal Weather Stations






























Interactive Weather Map New forecast layout! Learn more

10-Day Weather Forecast

Advertisements
Track Severe Weather on mobile